Time;durP1;ratioP1;P1;durP2;ratioP2;P2;SDS_P1;SDS_P2;PMS_P1;PMS_P2;Temp;Humidity;BMP_temperature;BMP_pressure;BME280_temperature;BME280_humidity;BME280_pressure;Samples;Min_cycle;Max_cycle;Signal;HPM_P1;HPM_P2
2023/05/10 00:01:22;;;;;;;14.80;10.20;;;;;;;8.97;45.82;100689.54;110651;1264;21970;-81
2023/05/10 00:03:54;;;;;;;13.40;9.70;;;;;;;8.93;45.97;100685.45;110942;1264;22832;-82
2023/05/10 00:06:25;;;;;;;15.20;10.50;;;;;;;8.89;46.12;100683.83;111028;1257;23212;-80
2023/05/10 00:08:58;;;;;;;14.40;10.20;;;;;;;8.83;46.14;100678.78;111713;1257;21989;-81
2023/05/10 00:11:30;;;;;;;14.80;9.80;;;;;;;8.80;46.25;100676.08;111159;1257;21958;-80
2023/05/10 00:14:03;;;;;;;11.60;10.40;;;;;;;8.76;46.47;100671.85;111293;1257;23867;-81
2023/05/10 00:16:35;;;;;;;15.10;10.10;;;;;;;8.73;46.59;100672.78;111418;1257;23017;-82
2023/05/10 00:19:10;;;;;;;12.40;10.50;;;;;;;8.69;46.57;100668.55;111175;1257;21976;-80
2023/05/10 00:21:41;;;;;;;13.80;11.10;;;;;;;8.64;46.80;100666.42;111537;1257;23815;-83
2023/05/10 00:24:12;;;;;;;14.60;10.20;;;;;;;8.63;46.87;100669.74;110929;1257;23054;-80
2023/05/10 00:26:43;;;;;;;15.10;10.30;;;;;;;8.61;46.98;100666.84;111150;1257;21983;-80
2023/05/10 00:29:16;;;;;;;16.20;11.50;;;;;;;8.59;47.14;100666.19;111367;1257;21960;-81
2023/05/10 00:31:49;;;;;;;15.80;11.80;;;;;;;8.57;47.03;100663.11;111291;1254;22051;-81
2023/05/10 00:34:21;;;;;;;18.50;12.60;;;;;;;8.54;47.10;100661.62;111411;1257;21969;-80
2023/05/10 00:36:54;;;;;;;16.60;13.20;;;;;;;8.50;47.24;100658.42;111128;1257;23670;-81
2023/05/10 00:39:28;;;;;;;15.70;11.90;;;;;;;8.46;47.31;100664.60;111449;1250;22989;-80
2023/05/10 00:42:02;;;;;;;14.50;11.50;;;;;;;8.43;47.34;100664.31;111446;1257;21957;-82
2023/05/10 00:44:36;;;;;;;16.60;11.70;;;;;;;8.42;47.40;100663.81;110715;1262;21974;-80
2023/05/10 00:47:09;;;;;;;18.40;11.10;;;;;;;8.40;47.29;100659.68;111126;1262;22042;-79
2023/05/10 00:49:41;;;;;;;11.70;9.50;;;;;;;8.38;47.56;100654.88;111210;1262;21966;-83
2023/05/10 00:52:15;;;;;;;12.30;9.90;;;;;;;8.35;47.71;100651.30;110486;1266;21970;-84
2023/05/10 00:54:47;;;;;;;14.90;10.20;;;;;;;8.35;47.59;100649.58;110810;1266;22212;-81
2023/05/10 00:57:25;;;;;;;14.10;9.80;;;;;;;8.36;47.61;100647.45;110633;1266;21970;-81
2023/05/10 00:59:57;;;;;;;13.70;9.50;;;;;;;8.35;47.39;100650.45;110319;1266;22002;-80
2023/05/10 01:02:28;;;;;;;11.60;9.70;;;;;;;8.34;47.42;100646.80;110703;1260;21962;-83
2023/05/10 01:05:00;;;;;;;17.50;10.30;;;;;;;8.34;47.47;100643.17;110906;1266;21966;-83
2023/05/10 01:07:33;;;;;;;12.20;11.00;;;;;;;8.33;47.57;100641.80;110533;1266;21974;-80
2023/05/10 01:10:08;;;;;;;16.10;11.00;;;;;;;8.33;47.52;100639.89;110653;1264;22009;-81
2023/05/10 01:12:45;;;;;;;16.60;9.80;;;;;;;8.32;47.51;100636.45;111073;1263;22005;-81
2023/05/10 01:15:18;;;;;;;13.60;10.50;;;;;;;8.31;47.48;100633.55;110865;1263;21925;-80
2023/05/10 01:17:48;;;;;;;18.30;10.50;;;;;;;8.31;47.65;100630.09;110992;1263;21961;-81
2023/05/10 01:20:19;;;;;;;11.00;9.10;;;;;;;8.31;47.63;100632.34;111009;1263;21943;-80
2023/05/10 01:23:16;;;;;;;;;;;;;;;8.30;47.50;100629.05;111087;1256;21959;-80
2023/05/10 01:26:24;;;;;;;14.80;9.50;;;;;;;8.18;47.53;100623.27;111531;1256;21926;-81
2023/05/10 01:29:26;;;;;;;18.60;10.50;;;;;;;8.18;47.73;100627.25;111559;1256;21962;-80
2023/05/10 01:31:59;;;;;;;12.30;8.50;;;;;;;8.19;47.72;100623.42;111586;1256;21987;-81
2023/05/10 01:34:57;;;;;;;10.90;8.70;;;;;;;8.20;47.60;100620.95;111747;1255;23599;-81
2023/05/10 01:38:01;;;;;;;9.50;8.50;;;;;;;8.19;47.59;100625.67;111581;1255;21968;-81
2023/05/10 01:41:06;;;;;;;9.70;6.70;;;;;;;8.15;47.74;100624.02;111751;1255;22057;-80
2023/05/10 01:44:19;;;;;;;12.10;7.20;;;;;;;8.14;47.70;100622.13;111473;1256;21967;-76
2023/05/10 01:47:04;;;;;;;10.10;6.70;;;;;;;8.10;47.82;100619.80;110845;1264;21952;-80
2023/05/10 01:49:53;;;;;;;10.10;6.60;;;;;;;8.12;47.69;100620.45;110922;1264;21971;-80
2023/05/10 01:52:44;;;;;;;8.90;6.20;;;;;;;8.12;47.83;100622.87;110835;1264;21943;-80
2023/05/10 01:55:20;;;;;;;8.80;6.00;;;;;;;8.09;47.97;100618.96;110797;1264;21974;-80
2023/05/10 01:58:03;;;;;;;10.70;5.90;;;;;;;8.07;47.84;100620.58;109980;1269;21973;-80
2023/05/10 02:00:35;;;;;;;8.70;6.10;;;;;;;8.04;47.91;100619.95;110207;1265;22455;-80
2023/05/10 02:03:11;;;;;;;7.10;5.70;;;;;;;8.03;47.89;100620.84;110127;1268;21970;-80
2023/05/10 02:05:44;;;;;;;10.60;5.90;;;;;;;8.01;48.00;100616.20;110406;1268;22194;-80
2023/05/10 02:08:21;;;;;;;9.30;5.50;;;;;;;7.99;48.08;100613.46;110448;1268;22035;-80
2023/05/10 02:10:56;;;;;;;7.20;5.70;;;;;;;7.97;48.09;100610.75;109910;1268;22040;-81
2023/05/10 02:13:29;;;;;;;9.10;5.80;;;;;;;7.95;48.21;100607.33;110591;1268;24186;-81
2023/05/10 02:16:05;;;;;;;7.10;5.70;;;;;;;7.92;48.22;100607.89;110210;1264;22237;-83
2023/05/10 02:18:37;;;;;;;7.90;5.20;;;;;;;7.90;48.30;100608.31;111105;1264;23068;-80
2023/05/10 02:21:16;;;;;;;10.40;5.70;;;;;;;7.91;48.40;100611.92;111010;1264;21964;-81
2023/05/10 02:23:53;;;;;;;8.50;5.60;;;;;;;7.89;48.41;100606.59;111174;1256;23127;-80
2023/05/10 02:26:29;;;;;;;6.80;5.30;;;;;;;7.89;48.34;100609.54;111733;1256;21965;-82
2023/05/10 02:29:03;;;;;;;6.80;5.50;;;;;;;7.88;48.51;100604.55;111704;1256;22227;-81
2023/05/10 02:31:38;;;;;;;7.20;5.70;;;;;;;7.90;48.65;100606.05;111564;1256;21974;-81
2023/05/10 02:34:12;;;;;;;13.10;5.50;;;;;;;7.92;48.62;100608.43;111563;1256;21967;-79
2023/05/10 02:36:44;;;;;;;12.40;5.70;;;;;;;7.91;48.50;100606.37;111505;1256;22248;-79
2023/05/10 02:39:19;;;;;;;9.50;5.60;;;;;;;7.90;48.50;100607.45;111466;1256;22001;-81
2023/05/10 02:41:51;;;;;;;8.90;5.00;;;;;;;7.88;48.55;100604.54;111540;1256;23849;-79
2023/05/10 02:44:23;;;;;;;10.80;5.90;;;;;;;7.87;48.56;100609.06;111569;1256;22430;-80
2023/05/10 02:46:55;;;;;;;9.00;5.80;;;;;;;7.87;48.65;100608.72;111224;1256;23033;-81
2023/05/10 02:49:26;;;;;;;18.50;5.60;;;;;;;7.83;48.79;100608.11;111571;1256;21999;-80
2023/05/10 02:52:05;;;;;;;7.50;4.80;;;;;;;7.80;48.88;100604.38;111731;1256;23088;-80
2023/05/10 02:54:46;;;;;;;8.10;5.50;;;;;;;7.76;48.91;100600.31;111280;1256;23104;-80
2023/05/10 02:57:34;;;;;;;10.50;4.40;;;;;;;7.74;49.02;100602.41;111517;1256;23018;-82
2023/05/10 03:00:06;;;;;;;8.20;5.00;;;;;;;7.74;49.26;100602.08;111709;1256;22208;-82
2023/05/10 03:02:37;;;;;;;8.50;5.50;;;;;;;7.75;49.13;100599.63;111366;1261;22534;-81
2023/05/10 03:05:09;;;;;;;9.10;6.70;;;;;;;7.76;49.17;100606.02;110748;1266;23061;-82
2023/05/10 03:07:46;;;;;;;8.20;5.60;;;;;;;7.76;49.12;100609.30;110301;1270;21988;-81
2023/05/10 03:10:17;;;;;;;;;;;;;;;7.77;49.08;100607.91;110278;1270;23175;-81
2023/05/10 03:12:57;;;;;;;8.80;5.70;;;;;;;7.68;49.45;100607.92;110288;1269;22034;-81
2023/05/10 03:15:42;;;;;;;11.30;5.60;;;;;;;7.69;49.51;100607.55;110226;1269;21976;-82
2023/05/10 03:18:23;;;;;;;13.70;5.70;;;;;;;7.70;49.49;100606.14;110044;1270;21918;-81
2023/05/10 03:21:05;;;;;;;7.60;5.70;;;;;;;7.71;49.53;100603.52;110147;1266;21975;-81
2023/05/10 03:23:51;;;;;;;8.40;5.90;;;;;;;7.73;49.66;100602.62;111081;1261;21988;-80
2023/05/10 03:26:28;;;;;;;9.30;6.40;;;;;;;7.74;49.84;100606.39;111525;1256;22196;-82
2023/05/10 03:29:14;;;;;;;8.30;6.60;;;;;;;7.77;49.72;100604.95;111680;1256;21983;-82
2023/05/10 03:31:46;;;;;;;14.40;7.80;;;;;;;7.82;49.80;100603.30;111449;1256;21971;-82
2023/05/10 03:34:24;;;;;;;14.60;11.40;;;;;;;7.83;49.71;100607.95;111656;1256;21962;-82
2023/05/10 03:36:57;;;;;;;12.10;9.60;;;;;;;7.85;49.71;100604.44;111508;1256;21956;-81
2023/05/10 03:39:28;;;;;;;18.90;9.70;;;;;;;7.87;49.82;100601.09;111311;1256;22002;-81
2023/05/10 03:41:59;;;;;;;;;;;;;;;7.92;49.87;100601.51;111725;1256;22002;-82
2023/05/10 03:44:30;;;;;;;11.20;8.90;;;;;;;7.88;50.09;100597.09;111481;1260;22341;-80
2023/05/10 03:47:01;;;;;;;12.70;7.80;;;;;;;7.93;49.88;100597.48;111384;1259;21989;-81
2023/05/10 03:49:32;;;;;;;10.10;7.30;;;;;;;8.00;49.99;100597.18;111208;1259;23053;-79
2023/05/10 03:52:05;;;;;;;13.20;6.10;;;;;;;8.11;50.20;100597.44;111242;1260;21963;-79
2023/05/10 03:54:37;;;;;;;13.50;7.20;;;;;;;8.23;50.12;100597.67;111251;1260;21965;-80
2023/05/10 03:57:13;;;;;;;10.80;6.20;;;;;;;8.36;49.79;100594.92;111245;1258;21995;-79
2023/05/10 03:59:45;;;;;;;11.70;6.60;;;;;;;8.48;49.84;100590.64;111168;1263;23122;-80
2023/05/10 04:02:17;;;;;;;10.10;6.30;;;;;;;8.59;49.61;100588.30;111147;1264;23826;-83
2023/05/10 04:05:02;;;;;;;9.60;5.30;;;;;;;8.69;49.31;100585.61;111159;1263;21982;-82
2023/05/10 04:07:32;;;;;;;9.50;6.30;;;;;;;8.81;49.04;100593.61;111248;1264;21980;-81
2023/05/10 04:10:05;;;;;;;6.40;4.90;;;;;;;8.92;48.88;100594.02;111146;1264;22091;-83
2023/05/10 04:12:35;;;;;;;11.90;5.90;;;;;;;9.02;48.72;100595.66;111056;1263;21980;-82
2023/05/10 04:15:06;;;;;;;9.10;5.70;;;;;;;9.12;48.62;100595.05;111092;1263;21931;-84
2023/05/10 04:17:37;;;;;;;8.70;5.90;;;;;;;9.25;48.47;100592.77;111092;1256;22019;-81
2023/05/10 04:20:10;;;;;;;10.70;6.00;;;;;;;9.38;48.15;100590.14;111375;1256;22536;-83
2023/05/10 04:22:41;;;;;;;13.40;6.20;;;;;;;9.55;48.56;100591.72;111509;1256;22250;-83
2023/05/10 04:25:11;;;;;;;17.30;6.00;;;;;;;9.83;48.46;100589.64;111460;1254;21969;-82
2023/05/10 04:27:42;;;;;;;10.30;6.60;;;;;;;10.06;47.73;100596.08;111520;1255;21995;-83
2023/05/10 04:30:12;;;;;;;11.00;6.30;;;;;;;10.23;47.33;100592.93;111570;1256;21924;-77
2023/05/10 04:32:43;;;;;;;19.10;6.90;;;;;;;10.43;46.98;100594.05;111164;1256;22714;-78
2023/05/10 04:35:14;;;;;;;11.20;6.40;;;;;;;10.69;47.13;100594.56;111322;1256;21962;-79
2023/05/10 04:37:44;;;;;;;9.90;5.80;;;;;;;11.01;46.71;100593.97;111534;1256;21969;-77
2023/05/10 04:40:15;;;;;;;9.70;5.40;;;;;;;11.32;46.30;100591.96;111419;1256;22421;-80
2023/05/10 04:42:46;;;;;;;7.90;6.30;;;;;;;11.62;45.52;100595.90;111454;1255;23704;-78
2023/05/10 04:45:16;;;;;;;11.40;5.60;;;;;;;11.87;44.76;100598.46;111238;1260;23068;-81
2023/05/10 04:47:46;;;;;;;11.10;5.30;;;;;;;12.09;44.22;100605.62;111136;1260;24427;-79
2023/05/10 04:50:17;;;;;;;8.40;5.90;;;;;;;12.20;43.70;100602.02;111294;1260;23732;-78
2023/05/10 04:52:47;;;;;;;8.30;5.30;;;;;;;12.32;43.42;100599.30;111162;1260;22569;-78
2023/05/10 04:55:17;;;;;;;12.00;6.10;;;;;;;12.44;43.36;100599.64;111282;1260;23631;-77
2023/05/10 04:57:47;;;;;;;7.90;5.50;;;;;;;12.67;43.62;100599.91;110972;1260;22067;-78
2023/05/10 05:00:18;;;;;;;8.80;5.80;;;;;;;12.95;42.90;100601.66;111013;1260;24068;-79
2023/05/10 05:02:47;;;;;;;10.20;5.30;;;;;;;13.16;42.68;100598.33;111132;1260;21978;-78
2023/05/10 05:05:18;;;;;;;10.30;5.30;;;;;;;13.31;41.76;100599.25;111175;1260;21983;-79
2023/05/10 05:07:48;;;;;;;8.10;5.10;;;;;;;13.32;41.39;100595.34;111118;1260;22283;-78
2023/05/10 05:10:18;;;;;;;8.30;6.40;;;;;;;13.52;41.99;100600.73;111149;1251;23129;-79
2023/05/10 05:12:49;;;;;;;8.70;5.10;;;;;;;13.87;41.41;100601.91;111192;1255;21969;-78
2023/05/10 05:15:19;;;;;;;9.30;4.60;;;;;;;13.96;40.62;100598.70;111152;1255;22997;-79
2023/05/10 05:17:50;;;;;;;12.10;4.90;;;;;;;14.06;40.83;100595.23;111342;1255;23052;-79
2023/05/10 05:20:20;;;;;;;6.60;4.90;;;;;;;14.23;40.51;100603.66;111305;1255;22733;-81
2023/05/10 05:22:50;;;;;;;8.00;4.70;;;;;;;14.35;39.60;100602.91;111680;1255;21956;-80
2023/05/10 05:25:21;;;;;;;9.00;5.60;;;;;;;14.37;39.29;100603.86;111413;1255;21948;-80
2023/05/10 05:27:54;;;;;;;7.80;4.80;;;;;;;14.51;39.98;100604.02;111454;1256;21973;-80
2023/05/10 05:30:24;;;;;;;9.40;4.80;;;;;;;14.81;39.28;100606.23;111154;1255;21977;-78
2023/05/10 05:32:54;;;;;;;21.40;4.90;;;;;;;14.93;38.81;100607.38;111458;1255;21955;-82
2023/05/10 05:35:25;;;;;;;8.60;5.00;;;;;;;15.09;38.44;100608.13;111419;1255;21962;-81
2023/05/10 05:37:55;;;;;;;11.50;4.30;;;;;;;15.24;38.17;100602.79;111542;1255;21957;-81
2023/05/10 05:40:26;;;;;;;7.70;4.90;;;;;;;15.37;37.83;100605.59;111415;1255;21969;-78
2023/05/10 05:42:56;;;;;;;6.70;4.80;;;;;;;15.62;37.78;100608.10;111427;1255;21958;-78
2023/05/10 05:45:29;;;;;;;6.10;4.40;;;;;;;15.93;37.13;100608.02;111507;1244;21975;-80
2023/05/10 05:48:00;;;;;;;5.70;4.30;;;;;;;16.19;36.97;100605.48;111278;1255;22006;-77
2023/05/10 05:50:33;;;;;;;12.30;5.10;;;;;;;16.45;36.78;100603.42;111342;1255;22026;-77
2023/05/10 05:53:03;;;;;;;10.60;6.20;;;;;;;16.72;36.29;100604.86;110774;1262;22026;-78
2023/05/10 05:55:34;;;;;;;8.20;4.70;;;;;;;17.01;35.83;100608.05;110707;1262;22998;-76
2023/05/10 05:58:04;;;;;;;10.10;4.80;;;;;;;17.09;35.11;100602.65;110615;1262;22464;-78
2023/05/10 06:00:35;;;;;;;7.70;4.50;;;;;;;16.84;34.59;100600.85;110894;1262;21967;-79
2023/05/10 06:03:06;;;;;;;9.90;5.40;;;;;;;16.54;35.01;100606.42;110748;1262;23703;-77
2023/05/10 06:05:38;;;;;;;8.90;4.60;;;;;;;16.35;35.37;100603.83;110865;1262;23672;-77
2023/05/10 06:08:08;;;;;;;7.70;4.30;;;;;;;16.28;35.75;100603.70;111042;1262;22128;-78
2023/05/10 06:10:38;;;;;;;9.40;4.90;;;;;;;16.35;36.30;100598.94;111008;1255;23627;-79
2023/05/10 06:13:09;;;;;;;8.70;4.80;;;;;;;16.74;36.41;100596.85;111603;1255;23657;-80
2023/05/10 06:15:40;;;;;;;6.80;4.70;;;;;;;17.19;35.95;100600.98;111244;1255;22951;-79
2023/05/10 06:18:10;;;;;;;7.80;5.30;;;;;;;17.38;34.64;100601.77;111460;1255;21972;-78
2023/05/10 06:20:43;;;;;;;6.60;4.60;;;;;;;17.32;34.50;100606.53;111032;1255;21965;-80
2023/05/10 06:23:13;;;;;;;9.10;4.80;;;;;;;17.27;34.62;100608.28;111190;1255;23628;-78
2023/05/10 06:25:44;;;;;;;10.60;4.80;;;;;;;17.27;34.16;100611.61;111565;1255;22447;-77
2023/05/10 06:28:14;;;;;;;6.10;4.90;;;;;;;17.08;34.21;100604.84;111187;1255;22050;-78
2023/05/10 06:30:44;;;;;;;8.80;5.00;;;;;;;16.99;34.72;100604.32;111452;1255;21978;-78
2023/05/10 06:33:17;;;;;;;7.50;4.90;;;;;;;17.15;34.85;100601.08;111035;1255;21993;-77
2023/05/10 06:35:47;;;;;;;9.80;5.80;;;;;;;17.40;34.76;100600.27;111298;1255;21959;-76
2023/05/10 06:38:17;;;;;;;6.90;4.60;;;;;;;17.54;34.29;100593.77;111210;1255;21994;-75
2023/05/10 06:40:47;;;;;;;4.50;3.80;;;;;;;17.61;33.78;100605.65;111277;1255;22189;-77
2023/05/10 06:43:24;;;;;;;5.70;4.40;;;;;;;17.46;33.53;100602.83;111485;1255;23015;-82
2023/05/10 06:46:00;;;;;;;7.90;4.40;;;;;;;17.44;34.10;100598.80;111577;1256;22416;-83
2023/05/10 06:48:31;;;;;;;8.30;4.80;;;;;;;17.67;34.34;100598.38;111360;1256;23008;-80
2023/05/10 06:51:01;;;;;;;6.90;4.90;;;;;;;18.03;33.74;100602.23;111788;1253;21965;-80
2023/05/10 06:53:31;;;;;;;6.50;4.90;;;;;;;18.30;33.20;100600.33;111545;1256;21962;-79
2023/05/10 06:56:02;;;;;;;7.00;4.30;;;;;;;18.38;33.10;100596.05;111111;1262;21951;-80
2023/05/10 06:58:35;;;;;;;;;;;;;;;18.64;33.23;100596.29;110754;1262;23822;-80
2023/05/10 07:01:06;;;;;;;8.40;4.00;;;;;;;18.84;33.39;100590.91;110821;1262;22986;-78
2023/05/10 07:03:37;;;;;;;10.00;4.30;;;;;;;19.27;32.95;100588.84;110893;1262;21799;-78
2023/05/10 07:06:08;;;;;;;7.30;4.40;;;;;;;19.69;32.25;100587.75;110955;1262;21970;-82
2023/05/10 07:08:58;;;;;;;7.10;5.00;;;;;;;20.18;31.89;100584.73;110956;1262;21962;-78
2023/05/10 07:11:28;;;;;;;7.00;4.70;;;;;;;20.59;31.28;100582.38;110753;1261;22743;-79
2023/05/10 07:13:59;;;;;;;8.00;4.90;;;;;;;20.82;29.77;100577.83;110527;1255;21917;-79
2023/05/10 07:16:29;;;;;;;5.90;4.20;;;;;;;20.91;29.71;100575.73;111676;1256;22014;-81
2023/05/10 07:18:59;;;;;;;8.60;4.70;;;;;;;20.96;29.44;100576.19;111458;1256;22191;-78
2023/05/10 07:21:30;;;;;;;6.50;4.70;;;;;;;21.13;29.16;100573.11;111028;1256;21965;-79
2023/05/10 07:24:01;;;;;;;5.40;3.80;;;;;;;21.53;29.75;100569.92;111222;1256;22020;-79
2023/05/10 07:26:31;;;;;;;6.40;3.90;;;;;;;21.85;28.33;100570.05;111494;1256;22792;-79
2023/05/10 07:29:02;;;;;;;10.70;4.20;;;;;;;21.85;28.16;100567.41;111256;1256;21959;-79
2023/05/10 07:31:32;;;;;;;5.40;4.00;;;;;;;21.78;28.39;100568.80;111561;1256;23712;-78
2023/05/10 07:34:03;;;;;;;11.00;4.70;;;;;;;21.87;27.96;100565.82;111569;1256;23703;-79
2023/05/10 07:36:33;;;;;;;7.30;4.30;;;;;;;21.93;27.84;100566.41;111469;1256;21982;-81
2023/05/10 07:39:04;;;;;;;4.80;3.10;;;;;;;22.24;27.95;100568.77;111344;1256;23643;-81
2023/05/10 07:41:38;;;;;;;6.90;3.70;;;;;;;22.41;26.82;100563.50;111587;1256;21935;-80
2023/05/10 07:44:08;;;;;;;5.10;3.30;;;;;;;22.34;26.82;100567.09;111587;1256;21985;-79
2023/05/10 07:46:39;;;;;;;5.20;3.40;;;;;;;22.34;27.06;100562.52;111689;1256;22056;-83
2023/05/10 07:49:10;;;;;;;4.70;3.30;;;;;;;22.37;27.23;100566.63;111064;1261;24345;-83
2023/05/10 07:51:40;;;;;;;4.80;3.10;;;;;;;22.62;27.57;100565.44;111336;1261;22437;-83
2023/05/10 07:54:12;;;;;;;7.40;3.60;;;;;;;22.61;26.75;100562.33;111427;1261;21982;-83
2023/05/10 07:56:47;;;;;;;5.90;3.10;;;;;;;22.53;26.85;100568.54;111186;1261;22007;-85
2023/05/10 07:59:17;;;;;;;5.70;2.80;;;;;;;22.44;26.67;100564.86;110776;1261;398700;-85
2023/05/10 08:01:47;;;;;;;4.50;3.00;;;;;;;22.55;27.01;100566.06;111105;1260;23031;-84
2023/05/10 08:04:18;;;;;;;7.70;2.90;;;;;;;22.87;26.31;100562.45;111382;1260;21988;-84
2023/05/10 08:06:48;;;;;;;4.20;2.70;;;;;;;22.99;25.91;100556.07;111374;1256;21943;-84
2023/05/10 08:09:23;;;;;;;7.80;3.20;;;;;;;23.22;25.73;100554.98;111482;1256;22037;-84
2023/05/10 08:11:54;;;;;;;7.00;2.70;;;;;;;23.42;25.52;100551.29;111719;1255;21968;-83
2023/05/10 08:14:24;;;;;;;8.60;3.00;;;;;;;23.64;25.13;100557.84;111544;1255;21987;-82
2023/05/10 08:16:56;;;;;;;6.40;2.70;;;;;;;23.57;24.85;100553.80;111821;1248;22028;-82
2023/05/10 08:19:27;;;;;;;6.30;3.60;;;;;;;23.42;24.20;100553.91;111543;1255;22128;-84
2023/05/10 08:22:02;;;;;;;4.10;2.70;;;;;;;23.15;24.44;100547.80;111535;1255;21976;-82
2023/05/10 08:24:39;;;;;;;5.90;2.50;;;;;;;22.99;24.36;100547.21;111528;1255;22412;-83
2023/05/10 08:27:10;;;;;;;3.90;2.40;;;;;;;22.76;24.71;100542.75;111658;1255;22170;-83
2023/05/10 08:29:41;;;;;;;4.90;2.50;;;;;;;22.65;24.69;100549.00;111854;1247;21954;-82
2023/05/10 08:32:19;;;;;;;6.90;2.80;;;;;;;22.43;24.75;100548.25;111984;1255;23014;-85
2023/05/10 08:34:55;;;;;;;10.70;2.40;;;;;;;22.38;25.14;100551.83;111813;1255;22012;-78
2023/05/10 08:37:30;;;;;;;5.20;2.30;;;;;;;22.46;24.55;100551.41;111610;1255;22112;-80
2023/05/10 08:40:01;;;;;;;3.30;2.30;;;;;;;22.44;24.71;100551.71;111275;1254;22440;-79
2023/05/10 08:42:37;;;;;;;6.20;2.50;;;;;;;22.51;24.39;100543.83;111593;1255;21965;-80
2023/05/10 08:45:11;;;;;;;30.20;4.50;;;;;;;22.69;24.39;100547.79;111566;1254;21971;-79
2023/05/10 08:47:42;;;;;;;4.80;2.00;;;;;;;22.72;23.25;100549.83;111415;1255;23605;-80
2023/05/10 08:50:15;;;;;;;5.60;2.30;;;;;;;22.38;23.40;100552.73;111555;1255;23680;-81
2023/05/10 08:52:50;;;;;;;7.80;2.70;;;;;;;22.29;24.06;100548.38;110917;1262;22753;-79
2023/05/10 08:55:23;;;;;;;4.00;2.10;;;;;;;22.45;23.46;100557.13;110130;1268;21965;-80
2023/05/10 08:57:55;;;;;;;7.70;4.20;;;;;;;22.26;23.38;100555.46;110326;1266;21995;-79
2023/05/10 09:00:29;;;;;;;7.40;3.30;;;;;;;22.12;23.51;100557.54;109670;1268;23679;-79
2023/05/10 09:03:00;;;;;;;5.90;2.50;;;;;;;21.91;23.68;100550.23;110127;1268;24305;-80
2023/05/10 09:05:31;;;;;;;4.00;2.40;;;;;;;22.03;23.78;100554.44;109737;1272;23045;-81
2023/05/10 09:08:01;;;;;;;3.20;2.50;;;;;;;21.93;23.58;100552.92;109874;1271;22471;-79
2023/05/10 09:10:32;;;;;;;6.90;2.10;;;;;;;21.94;23.84;100546.81;109325;1271;23705;-79
2023/05/10 09:13:03;;;;;;;3.90;2.30;;;;;;;22.10;23.63;100544.78;109422;1267;21980;-79
2023/05/10 09:15:34;;;;;;;3.30;2.60;;;;;;;22.29;23.73;100548.20;110084;1266;22158;-80
2023/05/10 09:18:05;;;;;;;3.70;2.50;;;;;;;22.32;23.84;100538.94;110423;1267;21946;-79
2023/05/10 09:20:35;;;;;;;5.10;2.60;;;;;;;22.30;24.02;100542.28;110059;1267;21976;-80
2023/05/10 09:23:11;;;;;;;4.00;2.20;;;;;;;22.31;24.08;100533.33;110301;1261;21744;-79
2023/05/10 09:25:44;;;;;;;2.70;2.10;;;;;;;22.33;23.75;100536.54;110736;1259;22128;-80
2023/05/10 09:28:14;;;;;;;6.30;1.90;;;;;;;22.22;23.72;100529.94;110864;1259;23028;-80
2023/05/10 09:30:53;;;;;;;6.80;2.50;;;;;;;22.31;23.78;100529.24;111208;1259;21960;-80
2023/05/10 09:33:26;;;;;;;4.40;1.90;;;;;;;22.36;23.59;100535.35;110738;1259;22738;-80
2023/05/10 09:36:08;;;;;;;8.80;2.40;;;;;;;22.36;23.37;100534.85;111117;1259;21958;-79
2023/05/10 09:38:52;;;;;;;3.30;1.90;;;;;;;22.35;23.38;100539.49;110864;1259;22722;-78
2023/05/10 09:41:23;;;;;;;4.50;2.40;;;;;;;22.19;23.22;100538.06;111197;1259;23650;-81
2023/05/10 09:43:57;;;;;;;4.50;2.10;;;;;;;22.17;23.70;100536.78;110635;1260;21961;-81
2023/05/10 09:46:27;;;;;;;4.20;1.70;;;;;;;22.25;23.24;100537.02;110094;1266;21967;-80
2023/05/10 09:49:01;;;;;;;3.50;1.80;;;;;;;22.19;23.16;100541.91;110262;1266;21952;-81
2023/05/10 09:51:32;;;;;;;4.90;2.30;;;;;;;22.29;23.41;100540.55;110338;1266;21978;-80
2023/05/10 09:54:14;;;;;;;3.90;2.20;;;;;;;22.48;23.56;100538.12;110185;1266;21979;-79
2023/05/10 09:56:46;;;;;;;7.90;2.60;;;;;;;22.58;23.33;100529.45;110317;1266;23801;-80
2023/05/10 09:59:18;;;;;;;4.70;2.50;;;;;;;22.58;23.43;100531.04;110313;1266;22007;-82
2023/05/10 10:01:56;;;;;;;5.60;2.20;;;;;;;22.47;23.32;100538.34;110496;1260;22301;-80
2023/05/10 10:04:29;;;;;;;6.50;2.20;;;;;;;22.24;23.41;100539.88;111057;1255;23721;-80
2023/05/10 10:07:03;;;;;;;4.20;2.30;;;;;;;22.08;23.72;100529.52;111228;1255;23887;-80
2023/05/10 10:09:35;;;;;;;4.80;2.00;;;;;;;22.00;23.70;100525.94;111384;1255;22484;-80
2023/05/10 10:12:06;;;;;;;4.00;2.60;;;;;;;21.98;23.89;100526.77;111909;1255;21966;-80
2023/05/10 10:14:39;;;;;;;4.40;2.60;;;;;;;22.17;24.12;100531.98;111275;1255;21969;-80
2023/05/10 10:17:13;;;;;;;4.50;2.60;;;;;;;22.24;23.74;100528.52;111285;1255;21969;-81
2023/05/10 10:19:45;;;;;;;3.00;2.30;;;;;;;22.19;23.62;100521.70;111105;1248;23656;-79
2023/05/10 10:22:17;;;;;;;5.40;2.20;;;;;;;21.97;23.69;100513.63;111076;1255;21950;-80
2023/05/10 10:24:51;;;;;;;3.30;2.10;;;;;;;21.80;23.97;100514.98;111381;1255;21916;-79
2023/05/10 10:28:08;;;;;;;4.60;2.20;;;;;;;21.70;24.10;100522.17;110928;1254;21991;-81
2023/05/10 10:30:45;;;;;;;6.00;2.70;;;;;;;21.36;24.26;100518.38;110558;1263;21941;-81
2023/05/10 10:33:51;;;;;;;5.20;2.50;;;;;;;21.10;24.58;100510.86;110456;1263;21976;-81
2023/05/10 10:36:26;;;;;;;7.00;2.50;;;;;;;20.86;25.11;100514.19;109798;1271;21976;-81
2023/05/10 10:39:07;;;;;;;2.80;2.10;;;;;;;20.62;25.48;100510.04;109731;1271;22093;-80
2023/05/10 10:41:53;;;;;;;5.60;2.80;;;;;;;20.61;25.68;100495.96;109836;1271;21979;-79
2023/05/10 10:44:30;;;;;;;4.50;2.70;;;;;;;20.64;25.82;100503.69;109775;1271;21989;-79
2023/05/10 10:47:22;;;;;;;4.70;2.40;;;;;;;20.53;25.76;100504.70;109724;1271;23373;-79
2023/05/10 10:50:02;;;;;;;8.30;3.10;;;;;;;20.28;26.12;100495.52;109903;1271;24383;-79
2023/05/10 10:52:36;;;;;;;8.50;2.90;;;;;;;20.14;26.45;100497.45;109534;1271;22002;-79
2023/05/10 10:55:23;;;;;;;5.30;2.50;;;;;;;20.01;26.95;100494.02;110087;1263;21966;-79
2023/05/10 10:58:05;;;;;;;4.10;2.70;;;;;;;19.95;26.98;100493.41;110419;1263;21969;-79
2023/05/10 11:00:37;;;;;;;6.50;2.60;;;;;;;19.92;27.19;100485.81;110661;1263;22972;-79
2023/05/10 11:03:18;;;;;;;8.30;2.70;;;;;;;19.84;27.14;100491.34;110572;1263;22653;-81
2023/05/10 11:05:51;;;;;;;6.10;3.00;;;;;;;19.67;27.36;100497.01;110627;1263;21979;-80
2023/05/10 11:08:33;;;;;;;5.60;2.50;;;;;;;19.51;27.48;100492.67;111092;1254;21983;-79
2023/05/10 11:11:09;;;;;;;6.40;3.10;;;;;;;19.44;28.03;100490.69;110481;1262;21978;-78
2023/05/10 11:13:45;;;;;;;5.20;4.70;;;;;;;19.51;28.29;100489.66;110564;1262;22004;-79
2023/05/10 11:16:26;;;;;;;4.90;2.50;;;;;;;19.50;28.19;100498.20;110388;1262;23596;-80
2023/05/10 11:19:16;;;;;;;;;;;;;;;19.49;28.15;100491.92;109896;1269;21963;-79
2023/05/10 11:22:05;;;;;;;2.50;2.00;;;;;;;19.45;28.10;100493.65;110081;1269;23861;-80
2023/05/10 11:24:36;;;;;;;3.60;2.30;;;;;;;19.33;27.91;100486.73;109457;1274;23056;-79
2023/05/10 11:27:07;;;;;;;3.60;2.30;;;;;;;19.35;28.09;100474.84;109585;1274;22008;-80
2023/05/10 11:29:38;;;;;;;3.60;2.00;;;;;;;19.44;28.04;100478.75;109785;1268;21985;-79
2023/05/10 11:32:09;;;;;;;4.60;2.20;;;;;;;19.52;28.34;100471.80;109459;1274;22110;-80
2023/05/10 11:34:47;;;;;;;6.00;2.60;;;;;;;19.60;28.23;100477.89;109350;1274;22741;-79
2023/05/10 11:37:21;;;;;;;3.60;2.30;;;;;;;19.56;28.13;100478.02;109421;1274;23739;-80
2023/05/10 11:39:55;;;;;;;3.10;2.50;;;;;;;19.50;28.26;100479.32;109494;1272;21994;-79
2023/05/10 11:42:30;;;;;;;7.00;3.00;;;;;;;19.38;28.30;100481.61;109032;1274;22169;-78
2023/05/10 11:45:05;;;;;;;5.30;2.40;;;;;;;19.32;28.43;100474.66;109858;1268;23747;-77
2023/05/10 11:47:43;;;;;;;5.10;2.40;;;;;;;19.28;28.61;100476.17;110097;1268;21988;-79
2023/05/10 11:50:23;;;;;;;6.40;2.50;;;;;;;19.23;28.83;100478.86;110122;1268;22173;-79